< < Back
Terminal Aerodrome Forecast


Current Version              Previous Versions:   1  2  3  4  5  6  7  8  9  

Terminal Aerodrome Forecast

952
FTUS44 KHUN 032324
TAFHSV
TAF
KHSV 032324Z 0400/0424 24008KT P6SM VCSH BKN050
     FM040400 21008KT P6SM OVC030
     FM040900 22010KT P6SM -SHRA OVC015
     FM041800 26007KT P6SM OVC050=



Latest METAR

497
SAUS80 KWBC 041300 RRA
MTRHSV
METAR KHSV 041253Z 22005KT 10SM -RA BKN022 BKN030 OVC110 22/20 A3003 RMK
AO2 SLP161 P0010 T02220200 $


USA.gov is the U.S. government's official web portal to all federal, state and local government web resources and services.